createdAt,value
2018-05-08T00:00:14.560Z,1001.2
2018-05-08T00:01:15.276Z,1001.3
2018-05-08T00:02:15.999Z,1001.2
2018-05-08T00:03:16.722Z,1001.3
2018-05-08T00:04:17.445Z,1001.3
2018-05-08T00:05:18.169Z,1001.3
2018-05-08T00:06:18.901Z,1001.2
2018-05-08T00:07:19.628Z,1001.2
2018-05-08T00:08:20.366Z,1001.3
2018-05-08T00:09:21.094Z,1001.3
2018-05-08T00:10:21.821Z,1001.3
2018-05-08T00:11:22.545Z,1001.2
2018-05-08T00:12:23.274Z,1001.3
2018-05-08T00:13:24.038Z,1001.2
2018-05-08T00:14:24.757Z,1001.2
2018-05-08T00:15:25.476Z,1001.2
2018-05-08T00:16:26.198Z,1001.2
2018-05-08T00:17:26.905Z,1001.2
2018-05-08T00:18:27.620Z,1001.2
2018-05-08T00:19:28.337Z,1001.2
2018-05-08T00:20:29.071Z,1001.2
2018-05-08T00:21:29.780Z,1001.2
2018-05-08T00:22:30.510Z,1001.2
2018-05-08T00:23:31.220Z,1001.2
2018-05-08T00:24:32.091Z,1001.2
2018-05-08T00:25:32.815Z,1001.2
2018-05-08T00:26:33.537Z,1001.2
2018-05-08T00:27:34.263Z,1001.2
2018-05-08T00:28:34.982Z,1001.2
2018-05-08T00:29:35.704Z,1001.2
2018-05-08T00:30:36.437Z,1001.2
2018-05-08T00:31:37.271Z,1001.2
2018-05-08T00:32:37.998Z,1001.2
2018-05-08T00:33:38.718Z,1001.2
2018-05-08T00:34:39.434Z,1001.1
2018-05-08T00:35:40.156Z,1001.1
2018-05-08T00:36:40.897Z,1001.1
2018-05-08T00:37:41.617Z,1001.1
2018-05-08T00:38:42.332Z,1001.1
2018-05-08T00:39:43.056Z,1001.1
2018-05-08T00:40:44.023Z,1001.1
2018-05-08T00:41:44.841Z,1001.1
2018-05-08T00:42:45.567Z,1001.1
2018-05-08T00:43:46.307Z,1001.1
2018-05-08T00:44:47.042Z,1001.1
2018-05-08T00:45:47.760Z,1001.1
2018-05-08T00:46:48.575Z,1001.1
2018-05-08T00:47:49.301Z,1001.1
2018-05-08T00:48:50.018Z,1001.1
2018-05-08T00:49:50.744Z,1001.1
2018-05-08T00:50:51.480Z,1001.1
2018-05-08T00:51:52.305Z,1001.0
2018-05-08T00:52:53.034Z,1001.1
2018-05-08T00:53:53.756Z,1001.1
2018-05-08T00:54:54.493Z,1001.1
2018-05-08T00:55:55.209Z,1001.0
2018-05-08T00:56:55.949Z,1001.0
2018-05-08T00:57:56.663Z,1001.0
2018-05-08T00:58:57.384Z,1001.0
2018-05-08T00:59:58.098Z,1001.0
2018-05-08T01:00:58.806Z,1000.9
2018-05-08T01:01:59.532Z,1001.0
2018-05-08T01:03:00.246Z,1000.9
2018-05-08T01:04:00.993Z,1000.9
2018-05-08T01:05:01.705Z,1000.9
2018-05-08T01:06:02.420Z,1000.9
2018-05-08T01:07:03.163Z,1000.9
2018-05-08T01:08:03.883Z,1000.9
2018-05-08T01:09:04.597Z,1000.9
2018-05-08T01:10:05.378Z,1000.9
2018-05-08T01:11:06.348Z,1000.9
2018-05-08T01:12:07.074Z,1000.9
2018-05-08T01:13:08.033Z,1000.9
2018-05-08T01:14:08.753Z,1000.9
2018-05-08T01:15:09.523Z,1000.8
2018-05-08T01:16:10.238Z,1000.8
2018-05-08T01:17:10.967Z,1000.8
2018-05-08T01:18:11.694Z,1000.8
2018-05-08T01:19:12.420Z,1000.8
2018-05-08T01:20:13.182Z,1000.8
2018-05-08T01:21:13.901Z,1000.8
2018-05-08T01:22:14.621Z,1000.8
2018-05-08T01:23:15.375Z,1000.7
2018-05-08T01:24:16.122Z,1000.8
2018-05-08T01:25:16.925Z,1000.8
2018-05-08T01:26:17.786Z,1000.8
2018-05-08T01:27:18.622Z,1000.7
2018-05-08T01:28:19.388Z,1000.8
2018-05-08T01:29:20.265Z,1000.7
2018-05-08T01:30:21.140Z,1000.7
2018-05-08T01:31:21.953Z,1000.7
2018-05-08T01:32:23.119Z,1000.7
2018-05-08T01:33:23.896Z,1000.7
2018-05-08T01:34:24.794Z,1000.7
2018-05-08T01:35:25.664Z,1000.6
2018-05-08T01:36:26.426Z,1000.6
2018-05-08T01:37:27.257Z,1000.6
2018-05-08T01:38:28.095Z,1000.6
2018-05-08T01:39:28.872Z,1000.6
2018-05-08T01:40:29.737Z,1000.6
2018-05-08T01:41:30.480Z,1000.6
2018-05-08T01:42:31.198Z,1000.6
2018-05-08T01:43:31.991Z,1000.6
2018-05-08T01:44:32.765Z,1000.6
2018-05-08T01:45:33.614Z,1000.6
2018-05-08T01:46:34.356Z,1000.6
2018-05-08T01:47:35.302Z,1000.6
2018-05-08T01:48:36.077Z,1000.6
2018-05-08T01:49:36.806Z,1000.6
2018-05-08T01:50:37.539Z,1000.6
2018-05-08T01:51:38.256Z,1000.6
2018-05-08T01:52:39.234Z,1000.6
2018-05-08T01:53:40.097Z,1000.6
2018-05-08T01:54:40.842Z,1000.6
2018-05-08T01:55:41.559Z,1000.6
2018-05-08T01:56:42.276Z,1000.5
2018-05-08T01:57:42.993Z,1000.5
2018-05-08T01:58:43.716Z,1000.5
2018-05-08T01:59:44.444Z,1000.5
2018-05-08T02:00:45.163Z,1000.5
2018-05-08T02:01:45.881Z,1000.5
2018-05-08T02:02:46.604Z,1000.5
2018-05-08T02:03:47.335Z,1000.6
2018-05-08T02:04:48.413Z,1000.5
2018-05-08T02:05:49.141Z,1000.6
2018-05-08T02:06:49.872Z,1000.5
2018-05-08T02:07:50.591Z,1000.6
2018-05-08T02:08:51.311Z,1000.5
2018-05-08T02:09:52.055Z,1000.5
2018-05-08T02:10:52.766Z,1000.5
2018-05-08T02:11:53.507Z,1000.5
2018-05-08T02:12:54.235Z,1000.5
2018-05-08T02:13:54.946Z,1000.5
2018-05-08T02:14:55.667Z,1000.5
2018-05-08T02:15:56.382Z,1000.5
2018-05-08T02:16:57.104Z,1000.4
2018-05-08T02:17:57.833Z,1000.4
2018-05-08T02:18:58.548Z,1000.4
2018-05-08T02:19:59.273Z,1000.4
2018-05-08T02:21:00.695Z,1000.4
2018-05-08T02:22:01.414Z,1000.4
2018-05-08T02:23:02.145Z,1000.4
2018-05-08T02:24:02.872Z,1000.4
2018-05-08T02:25:03.596Z,1000.4
2018-05-08T02:26:04.422Z,1000.4
2018-05-08T02:27:05.140Z,1000.4
2018-05-08T02:28:05.860Z,1000.3
2018-05-08T02:29:06.584Z,1000.4
2018-05-08T02:30:07.308Z,1000.4
2018-05-08T02:31:08.035Z,1000.4
2018-05-08T02:32:08.757Z,1000.4
2018-05-08T02:33:09.492Z,1000.4
2018-05-08T02:34:10.213Z,1000.4
2018-05-08T02:35:10.923Z,1000.4
2018-05-08T02:36:11.644Z,1000.3
2018-05-08T02:37:12.526Z,1000.3
2018-05-08T02:38:13.245Z,1000.3
2018-05-08T02:39:13.968Z,1000.3
2018-05-08T02:40:14.683Z,1000.3
2018-05-08T02:41:15.407Z,1000.3
2018-05-08T02:42:16.480Z,1000.3
2018-05-08T02:43:17.214Z,1000.3
2018-05-08T02:44:17.922Z,1000.2
2018-05-08T02:45:18.649Z,1000.3
2018-05-08T02:46:19.364Z,1000.2
2018-05-08T02:47:20.186Z,1000.3
2018-05-08T02:48:21.168Z,1000.3
2018-05-08T02:49:21.923Z,1000.2
2018-05-08T02:50:22.651Z,1000.2
2018-05-08T02:51:23.420Z,1000.2
2018-05-08T02:52:24.282Z,1000.2
2018-05-08T02:53:25.138Z,1000.2
2018-05-08T02:54:25.918Z,1000.2
2018-05-08T02:55:26.676Z,1000.2
2018-05-08T02:56:27.388Z,1000.2
2018-05-08T02:57:28.276Z,1000.2
2018-05-08T02:58:28.997Z,1000.2
2018-05-08T02:59:29.709Z,1000.2
2018-05-08T03:00:30.424Z,1000.2
2018-05-08T03:01:31.169Z,1000.2
2018-05-08T03:02:31.879Z,1000.1
2018-05-08T03:03:32.608Z,1000.2
2018-05-08T03:04:33.330Z,1000.2
2018-05-08T03:05:34.056Z,1000.2
2018-05-08T03:06:34.787Z,1000.1
2018-05-08T03:07:35.508Z,1000.2
2018-05-08T03:08:36.216Z,1000.1
2018-05-08T03:09:36.941Z,1000.1
2018-05-08T03:10:37.659Z,1000.1
2018-05-08T03:11:38.375Z,1000.2
2018-05-08T03:12:39.104Z,1000.2
2018-05-08T03:13:39.835Z,1000.2
2018-05-08T03:14:40.826Z,1000.2
2018-05-08T03:15:41.546Z,1000.2
2018-05-08T03:16:42.253Z,1000.2
2018-05-08T03:17:42.966Z,1000.2
2018-05-08T03:18:43.688Z,1000.2
2018-05-08T03:19:44.400Z,1000.2
2018-05-08T03:20:45.144Z,1000.2
2018-05-08T03:21:46.103Z,1000.2
2018-05-08T03:22:46.818Z,1000.2
2018-05-08T03:23:47.535Z,1000.2
2018-05-08T03:24:48.257Z,1000.1
2018-05-08T03:25:49.237Z,1000.1
2018-05-08T03:26:49.940Z,1000.2
2018-05-08T03:27:50.677Z,1000.1
2018-05-08T03:28:51.455Z,1000.1
2018-05-08T03:29:52.197Z,1000.2
2018-05-08T03:30:52.921Z,1000.2
2018-05-08T03:31:53.643Z,1000.2
2018-05-08T03:32:54.628Z,1000.1
2018-05-08T03:33:55.331Z,1000.2
2018-05-08T03:34:56.059Z,1000.2
2018-05-08T03:35:56.831Z,1000.2
2018-05-08T03:36:57.560Z,1000.2
2018-05-08T03:37:58.275Z,1000.1
2018-05-08T03:38:59.027Z,1000.1
2018-05-08T03:39:59.760Z,1000.1
2018-05-08T03:41:00.580Z,1000.2
2018-05-08T03:42:01.293Z,1000.1
2018-05-08T03:43:02.016Z,1000.1
2018-05-08T03:44:02.745Z,1000.1
2018-05-08T03:45:03.461Z,1000.1
2018-05-08T03:46:04.237Z,1000.1
2018-05-08T03:47:04.962Z,1000.1
2018-05-08T03:48:05.682Z,1000.2
2018-05-08T03:49:06.411Z,1000.2
2018-05-08T03:50:07.131Z,1000.2
2018-05-08T03:51:07.862Z,1000.2
2018-05-08T03:52:08.856Z,1000.2
2018-05-08T03:53:09.580Z,1000.2
2018-05-08T03:54:10.296Z,1000.1
2018-05-08T03:55:11.079Z,1000.1
2018-05-08T03:56:11.814Z,1000.1
2018-05-08T03:57:12.537Z,1000.1
2018-05-08T03:58:13.272Z,1000.1
2018-05-08T03:59:14.242Z,1000.1
2018-05-08T04:00:14.963Z,1000.1
2018-05-08T04:01:16.033Z,1000.0
2018-05-08T04:02:16.767Z,1000.1
2018-05-08T04:03:17.577Z,1000.0
2018-05-08T04:04:18.346Z,1000.0
2018-05-08T04:05:19.123Z,1000.0
2018-05-08T04:06:20.004Z,1000.0
2018-05-08T04:07:20.768Z,1000.0
2018-05-08T04:08:21.644Z,1000.0
2018-05-08T04:09:22.372Z,1000.0
2018-05-08T04:10:23.232Z,1000.0
2018-05-08T04:11:24.397Z,1000.0
2018-05-08T04:12:25.248Z,1000.0
2018-05-08T04:13:26.101Z,1000.0
2018-05-08T04:14:26.864Z,1000.0
2018-05-08T04:15:27.720Z,1000.0
2018-05-08T04:16:28.403Z,1000.0
2018-05-08T04:17:29.126Z,1000.0
2018-05-08T04:18:29.871Z,1000.0
2018-05-08T04:19:30.595Z,1000.0
2018-05-08T04:20:31.326Z,999.9
2018-05-08T04:21:32.065Z,999.9
2018-05-08T04:22:32.858Z,999.9
2018-05-08T04:23:33.582Z,999.9
2018-05-08T04:24:34.306Z,1000.0
2018-05-08T04:25:35.030Z,1000.0
2018-05-08T04:26:35.749Z,999.9
2018-05-08T04:27:36.515Z,999.9
2018-05-08T04:28:37.246Z,1000.0
2018-05-08T04:29:37.971Z,1000.0
2018-05-08T04:30:38.942Z,999.9
2018-05-08T04:31:39.673Z,999.9
2018-05-08T04:32:40.880Z,999.9
2018-05-08T04:33:41.579Z,999.8
2018-05-08T04:34:42.312Z,999.8
2018-05-08T04:35:43.043Z,999.9
2018-05-08T04:36:43.810Z,999.8
2018-05-08T04:37:44.646Z,999.8
2018-05-08T04:38:45.361Z,999.8
2018-05-08T04:39:46.089Z,999.8
2018-05-08T04:40:46.821Z,999.9
2018-05-08T04:41:47.550Z,999.8
2018-05-08T04:42:48.670Z,999.8
2018-05-08T04:43:49.403Z,999.8
2018-05-08T04:44:50.391Z,999.8
2018-05-08T04:45:51.095Z,999.8
2018-05-08T04:46:51.822Z,999.8
2018-05-08T04:47:52.550Z,999.8
2018-05-08T04:48:53.276Z,999.8
2018-05-08T04:49:54.002Z,999.8
2018-05-08T04:50:54.777Z,999.7
2018-05-08T04:51:55.489Z,999.8
2018-05-08T04:52:56.210Z,999.8
2018-05-08T04:53:56.935Z,999.8
2018-05-08T04:54:57.918Z,999.7
2018-05-08T04:55:58.654Z,999.8
2018-05-08T04:56:59.372Z,999.8
2018-05-08T04:58:00.093Z,999.7
2018-05-08T04:59:01.083Z,999.7
2018-05-08T05:00:02.156Z,999.7
2018-05-08T05:01:02.865Z,999.7
2018-05-08T05:02:03.593Z,999.7
2018-05-08T05:03:04.335Z,999.7
2018-05-08T05:04:05.109Z,999.7
2018-05-08T05:05:05.855Z,999.7
2018-05-08T05:06:06.560Z,999.7
2018-05-08T05:07:07.642Z,999.7
2018-05-08T05:08:08.369Z,999.7
2018-05-08T05:09:09.336Z,999.7
2018-05-08T05:10:10.086Z,999.7
2018-05-08T05:11:10.830Z,999.7
2018-05-08T05:12:11.978Z,999.6
2018-05-08T05:13:12.993Z,999.7
2018-05-08T05:14:13.717Z,999.7
2018-05-08T05:15:14.441Z,999.6
2018-05-08T05:16:15.155Z,999.6
2018-05-08T05:17:15.929Z,999.6
2018-05-08T05:18:16.879Z,999.6
2018-05-08T05:19:18.028Z,999.5
2018-05-08T05:20:18.793Z,999.6
2018-05-08T05:21:19.689Z,999.6
2018-05-08T05:22:20.462Z,999.5
2018-05-08T05:23:21.303Z,999.5
2018-05-08T05:24:22.220Z,999.5
2018-05-08T05:25:22.909Z,999.5
2018-05-08T05:26:23.733Z,999.5
2018-05-08T05:27:24.503Z,999.5
2018-05-08T05:28:25.302Z,999.6
2018-05-08T05:29:26.150Z,999.5
2018-05-08T05:30:26.877Z,999.5
2018-05-08T05:31:27.869Z,999.5
2018-05-08T05:32:28.597Z,999.6
2018-05-08T05:33:29.330Z,999.6
2018-05-08T05:34:30.055Z,999.6
2018-05-08T05:35:31.947Z,999.6
2018-05-08T05:36:33.556Z,999.6
2018-05-08T05:37:34.651Z,999.6
2018-05-08T05:38:35.377Z,999.6
2018-05-08T05:39:36.134Z,999.6
2018-05-08T05:40:36.942Z,999.5
2018-05-08T05:41:37.647Z,999.5
2018-05-08T05:42:38.375Z,999.5
2018-05-08T05:43:39.111Z,999.5
2018-05-08T05:44:39.842Z,999.5
2018-05-08T05:45:40.828Z,999.5
2018-05-08T05:46:41.576Z,999.5
2018-05-08T05:47:42.314Z,999.5
2018-05-08T05:48:43.033Z,999.5
2018-05-08T05:49:43.753Z,999.5
2018-05-08T05:50:44.537Z,999.5
2018-05-08T05:51:45.271Z,999.5
2018-05-08T05:52:45.996Z,999.5
2018-05-08T05:53:46.743Z,999.5
2018-05-08T05:54:47.475Z,999.4
2018-05-08T05:55:48.560Z,999.4
2018-05-08T05:56:49.557Z,999.5
2018-05-08T05:57:50.279Z,999.4
2018-05-08T05:58:51.000Z,999.4
2018-05-08T05:59:51.729Z,999.4
2018-05-08T06:00:52.504Z,999.4
2018-05-08T06:01:53.227Z,999.4
2018-05-08T06:02:53.952Z,999.4
2018-05-08T06:03:54.695Z,999.4
2018-05-08T06:04:55.414Z,999.5
2018-05-08T06:05:56.294Z,999.4
2018-05-08T06:06:57.026Z,999.4
2018-05-08T06:07:57.766Z,999.4
2018-05-08T06:08:58.493Z,999.4
2018-05-08T06:09:59.223Z,999.4
2018-05-08T06:10:59.957Z,999.5
2018-05-08T06:12:00.775Z,999.4
2018-05-08T06:13:01.465Z,999.4
2018-05-08T06:14:02.205Z,999.4
2018-05-08T06:15:02.931Z,999.4
2018-05-08T06:16:03.673Z,999.4
2018-05-08T06:17:04.399Z,999.4
2018-05-08T06:18:05.138Z,999.4
2018-05-08T06:19:05.876Z,999.4
2018-05-08T06:20:06.652Z,999.4
2018-05-08T06:21:07.374Z,999.4
2018-05-08T06:22:08.092Z,999.4
2018-05-08T06:23:08.829Z,999.4
2018-05-08T06:24:09.805Z,999.4
2018-05-08T06:25:10.555Z,999.4
2018-05-08T06:26:11.288Z,999.4
2018-05-08T06:27:12.024Z,999.4
2018-05-08T06:28:12.752Z,999.4
2018-05-08T06:29:13.487Z,999.4
2018-05-08T06:30:14.213Z,999.4
2018-05-08T06:31:14.993Z,999.4
2018-05-08T06:32:15.719Z,999.4
2018-05-08T06:33:16.443Z,999.5
2018-05-08T06:34:17.168Z,999.5
2018-05-08T06:35:17.891Z,999.5
2018-05-08T06:36:18.795Z,999.5
2018-05-08T06:37:19.764Z,999.5
2018-05-08T06:38:20.502Z,999.5
2018-05-08T06:39:21.222Z,999.5
2018-05-08T06:40:21.971Z,999.4
2018-05-08T06:41:22.710Z,999.4
2018-05-08T06:42:23.448Z,999.4
2018-05-08T06:43:24.174Z,999.4
2018-05-08T06:44:24.905Z,999.4
2018-05-08T06:45:25.652Z,999.4
2018-05-08T06:46:26.482Z,999.4
2018-05-08T06:47:27.214Z,999.4
2018-05-08T06:48:27.956Z,999.4
2018-05-08T06:49:28.693Z,999.4
2018-05-08T06:50:29.415Z,999.4
2018-05-08T06:51:30.151Z,999.4
2018-05-08T06:52:30.873Z,999.4
2018-05-08T06:53:31.607Z,999.4
2018-05-08T06:54:32.676Z,999.5
2018-05-08T06:55:33.408Z,999.4
2018-05-08T06:56:34.129Z,999.4
2018-05-08T06:57:35.109Z,999.4
2018-05-08T06:58:35.837Z,999.5
2018-05-08T06:59:36.560Z,999.4
2018-05-08T07:00:37.289Z,999.4
2018-05-08T07:01:38.009Z,999.4
2018-05-08T07:02:38.746Z,999.4
2018-05-08T07:03:39.486Z,999.4
2018-05-08T07:04:40.568Z,999.4
2018-05-08T07:05:41.299Z,999.4
2018-05-08T07:06:42.267Z,999.4
2018-05-08T07:07:42.996Z,999.4
2018-05-08T07:08:43.734Z,999.4
2018-05-08T07:09:44.460Z,999.4
2018-05-08T07:10:45.187Z,999.4
2018-05-08T07:11:45.934Z,999.4
2018-05-08T07:12:46.666Z,999.4
2018-05-08T07:13:47.401Z,999.4
2018-05-08T07:14:48.383Z,999.4
2018-05-08T07:15:49.217Z,999.3
2018-05-08T07:16:49.837Z,999.4
2018-05-08T07:17:50.824Z,999.4
2018-05-08T07:18:51.554Z,999.4
2018-05-08T07:19:52.289Z,999.4
2018-05-08T07:20:53.013Z,999.4
2018-05-08T07:21:53.750Z,999.4
2018-05-08T07:22:54.474Z,999.4
2018-05-08T07:23:55.219Z,999.3
2018-05-08T07:24:55.934Z,999.4
2018-05-08T07:25:56.682Z,999.3
2018-05-08T07:26:57.415Z,999.4
2018-05-08T07:27:58.396Z,999.3
2018-05-08T07:28:59.137Z,999.3
2018-05-08T07:30:00.036Z,999.3
2018-05-08T07:31:00.703Z,999.3
2018-05-08T07:32:01.447Z,999.3
2018-05-08T07:33:02.186Z,999.3
2018-05-08T07:34:02.909Z,999.3
2018-05-08T07:35:03.633Z,999.3
2018-05-08T07:36:04.363Z,999.3
2018-05-08T07:37:05.147Z,999.4
2018-05-08T07:38:05.897Z,999.3
2018-05-08T07:39:06.627Z,999.3
2018-05-08T07:40:07.366Z,999.4
2018-05-08T07:41:08.099Z,999.3
2018-05-08T07:42:08.884Z,999.3
2018-05-08T07:43:09.621Z,999.2
2018-05-08T07:44:10.349Z,999.3
2018-05-08T07:45:11.087Z,999.3
2018-05-08T07:46:11.816Z,999.3
2018-05-08T07:47:12.598Z,999.3
2018-05-08T07:48:13.333Z,999.3
2018-05-08T07:49:14.062Z,999.3
2018-05-08T07:50:14.837Z,999.3
2018-05-08T07:51:15.535Z,999.3
2018-05-08T07:52:16.269Z,999.3
2018-05-08T07:53:16.988Z,999.3
2018-05-08T07:54:17.728Z,999.3
2018-05-08T07:55:18.562Z,999.4
2018-05-08T07:56:19.300Z,999.3
2018-05-08T07:57:20.030Z,999.3
2018-05-08T07:58:20.766Z,999.3
2018-05-08T07:59:21.500Z,999.3
2018-05-08T08:00:22.229Z,999.3
2018-05-08T08:01:22.960Z,999.3
2018-05-08T08:02:23.705Z,999.3
2018-05-08T08:03:24.445Z,999.3
2018-05-08T08:04:25.170Z,999.3
2018-05-08T08:05:25.947Z,999.3
2018-05-08T08:06:26.692Z,999.3
2018-05-08T08:07:27.459Z,999.3
2018-05-08T08:08:28.142Z,999.2
2018-05-08T08:09:28.879Z,999.3
2018-05-08T08:10:29.959Z,999.3
2018-05-08T08:11:30.708Z,999.3
2018-05-08T08:12:31.441Z,999.3
2018-05-08T08:13:32.199Z,999.3
2018-05-08T08:14:32.927Z,999.3
2018-05-08T08:15:33.682Z,999.3
2018-05-08T08:16:34.452Z,999.3
2018-05-08T08:17:35.446Z,999.3
2018-05-08T08:18:36.203Z,999.3
2018-05-08T08:19:36.905Z,999.3
2018-05-08T08:20:37.645Z,999.3
2018-05-08T08:21:38.424Z,999.3
2018-05-08T08:22:39.164Z,999.2
2018-05-08T08:23:40.153Z,999.3
2018-05-08T08:24:40.887Z,999.3
2018-05-08T08:25:41.624Z,999.2
2018-05-08T08:26:42.414Z,999.2
2018-05-08T08:27:43.159Z,999.2
2018-05-08T08:28:43.896Z,999.2
2018-05-08T08:29:44.664Z,999.1
2018-05-08T08:30:45.354Z,999.1
2018-05-08T08:31:46.088Z,999.1
2018-05-08T08:32:46.822Z,999.1
2018-05-08T08:33:47.806Z,999.1
2018-05-08T08:34:48.551Z,999.1
2018-05-08T08:35:49.277Z,999.1
2018-05-08T08:36:50.034Z,999.1
2018-05-08T08:37:50.760Z,999.0
2018-05-08T08:38:51.499Z,999.0
2018-05-08T08:39:52.251Z,999.0
2018-05-08T08:40:53.020Z,999.1
2018-05-08T08:41:53.717Z,999.1
2018-05-08T08:42:54.450Z,999.1
2018-05-08T08:43:55.198Z,999.1
2018-05-08T08:44:55.977Z,999.1
2018-05-08T08:45:56.716Z,999.1
2018-05-08T08:46:57.454Z,999.1
2018-05-08T08:47:58.299Z,999.1
2018-05-08T08:48:58.927Z,999.0
2018-05-08T08:49:59.668Z,999.0
2018-05-08T08:51:00.401Z,999.0
2018-05-08T08:52:01.408Z,999.0
2018-05-08T08:53:02.145Z,999.0
2018-05-08T08:54:02.872Z,999.0
2018-05-08T08:55:03.610Z,999.0
2018-05-08T08:56:04.633Z,999.0
2018-05-08T08:57:05.372Z,999.0
2018-05-08T08:58:06.093Z,999.1
2018-05-08T08:59:06.832Z,998.9
2018-05-08T09:00:07.819Z,999.0
2018-05-08T09:01:08.801Z,998.9
2018-05-08T09:02:09.554Z,998.9
2018-05-08T09:03:10.541Z,998.9
2018-05-08T09:04:11.268Z,998.9
2018-05-08T09:05:12.002Z,998.9
2018-05-08T09:06:12.733Z,998.9
2018-05-08T09:07:13.466Z,998.9
2018-05-08T09:08:14.199Z,998.8
2018-05-08T09:09:14.944Z,998.8
2018-05-08T09:10:15.947Z,998.8
2018-05-08T09:11:16.700Z,998.9
2018-05-08T09:12:17.427Z,998.9
2018-05-08T09:13:18.171Z,998.8
2018-05-08T09:14:18.909Z,998.9
2018-05-08T09:15:19.807Z,998.8
2018-05-08T09:16:20.549Z,998.8
2018-05-08T09:17:21.285Z,998.8
2018-05-08T09:18:22.265Z,998.8
2018-05-08T09:19:23.000Z,998.8
2018-05-08T09:20:23.742Z,998.8
2018-05-08T09:21:24.476Z,998.8
2018-05-08T09:22:25.216Z,998.8
2018-05-08T09:23:25.938Z,998.7
2018-05-08T09:24:26.676Z,998.9
2018-05-08T09:25:27.409Z,998.8
2018-05-08T09:26:28.154Z,998.8
2018-05-08T09:27:28.942Z,998.8
2018-05-08T09:28:29.647Z,998.8
2018-05-08T09:29:30.397Z,998.8
2018-05-08T09:30:31.221Z,998.8
2018-05-08T09:31:31.966Z,998.8
2018-05-08T09:32:32.705Z,998.8
2018-05-08T09:33:33.444Z,998.8
2018-05-08T09:34:34.189Z,998.8
2018-05-08T09:35:34.927Z,998.7
2018-05-08T09:36:35.661Z,998.7
2018-05-08T09:37:36.452Z,998.7
2018-05-08T09:38:37.443Z,998.7
2018-05-08T09:39:38.423Z,998.7
2018-05-08T09:40:39.173Z,998.6
2018-05-08T09:41:39.909Z,998.7
2018-05-08T09:42:40.687Z,998.7
2018-05-08T09:43:41.416Z,998.7
2018-05-08T09:44:42.410Z,998.6
2018-05-08T09:45:43.165Z,998.7
2018-05-08T09:46:43.885Z,998.7
2018-05-08T09:47:44.681Z,998.7
2018-05-08T09:48:45.436Z,998.6
2018-05-08T09:49:46.163Z,998.5
2018-05-08T09:50:46.895Z,998.6
2018-05-08T09:51:47.635Z,998.6
2018-05-08T09:52:48.426Z,998.6
2018-05-08T09:53:49.163Z,998.6
2018-05-08T09:54:49.909Z,998.5
2018-05-08T09:55:50.650Z,998.5
2018-05-08T09:56:51.387Z,998.5
2018-05-08T09:57:52.476Z,998.5
2018-05-08T09:58:53.213Z,998.5
2018-05-08T09:59:53.939Z,998.4
2018-05-08T10:00:54.695Z,998.5
2018-05-08T10:01:55.410Z,998.4
2018-05-08T10:02:56.156Z,998.5
2018-05-08T10:03:56.894Z,998.4
2018-05-08T10:04:58.091Z,998.4
2018-05-08T10:05:58.825Z,998.4
2018-05-08T10:06:59.580Z,998.3
2018-05-08T10:08:00.307Z,998.4
2018-05-08T10:09:01.379Z,998.3
2018-05-08T10:10:02.523Z,998.3
2018-05-08T10:11:03.515Z,998.2
2018-05-08T10:12:04.750Z,998.2
2018-05-08T10:13:05.916Z,998.2
2018-05-08T10:14:06.703Z,998.1
2018-05-08T10:15:07.485Z,998.1
2018-05-08T10:16:08.476Z,998.1
2018-05-08T10:17:09.234Z,998.2
2018-05-08T10:18:09.968Z,998.1
2018-05-08T10:19:10.699Z,998.2
2018-05-08T10:20:11.439Z,998.1
2018-05-08T10:21:12.191Z,998.1
2018-05-08T10:22:12.923Z,998.1
2018-05-08T10:23:13.991Z,998.1
2018-05-08T10:24:14.732Z,998.1
2018-05-08T10:25:15.624Z,998.1
2018-05-08T10:26:16.349Z,998.1
2018-05-08T10:27:17.988Z,998.0
2018-05-08T10:28:18.773Z,998.1
2018-05-08T10:29:19.507Z,998.1
2018-05-08T10:30:20.241Z,998.0
2018-05-08T10:31:20.983Z,998.0
2018-05-08T10:32:21.720Z,998.0
2018-05-08T10:33:22.451Z,998.0
2018-05-08T10:34:23.231Z,998.0
2018-05-08T10:35:23.952Z,998.0
2018-05-08T10:36:24.731Z,998.0
2018-05-08T10:37:25.472Z,998.0
2018-05-08T10:38:26.208Z,998.0
2018-05-08T10:39:26.945Z,997.9
2018-05-08T10:40:27.687Z,997.9
2018-05-08T10:41:28.824Z,997.9
2018-05-08T10:42:29.550Z,998.0
2018-05-08T10:43:30.299Z,997.9
2018-05-08T10:44:31.292Z,997.9
2018-05-08T10:45:32.027Z,997.9
2018-05-08T10:46:32.764Z,997.9
2018-05-08T10:47:33.491Z,997.9
2018-05-08T10:48:34.237Z,997.9
2018-05-08T10:49:35.018Z,997.9
2018-05-08T10:50:36.023Z,997.9
2018-05-08T10:51:37.030Z,997.9
2018-05-08T10:52:37.755Z,997.9
2018-05-08T10:53:38.509Z,997.9
2018-05-08T10:54:39.244Z,997.9
2018-05-08T10:55:40.055Z,997.8
2018-05-08T10:56:40.713Z,997.9
2018-05-08T10:57:41.442Z,997.8
2018-05-08T10:58:42.538Z,997.9
2018-05-08T10:59:43.266Z,997.8
2018-05-08T11:00:44.005Z,997.8
2018-05-08T11:01:44.785Z,997.8
2018-05-08T11:02:45.493Z,997.8
2018-05-08T11:03:46.280Z,997.8
2018-05-08T11:04:47.016Z,997.7
2018-05-08T11:05:47.757Z,997.7
2018-05-08T11:06:48.488Z,997.7
2018-05-08T11:07:49.232Z,997.7
2018-05-08T11:08:50.077Z,997.7
2018-05-08T11:09:50.811Z,997.8
2018-05-08T11:10:51.550Z,997.6
2018-05-08T11:11:52.289Z,997.6
2018-05-08T11:12:53.033Z,997.7
2018-05-08T11:13:53.759Z,997.6
2018-05-08T11:14:54.497Z,997.6
2018-05-08T11:15:55.234Z,997.7
2018-05-08T11:16:55.997Z,997.6
2018-05-08T11:17:56.726Z,997.6
2018-05-08T11:18:57.573Z,997.6
2018-05-08T11:19:58.332Z,997.5
2018-05-08T11:20:59.070Z,997.6
2018-05-08T11:21:59.815Z,997.6
2018-05-08T11:23:00.552Z,997.7
2018-05-08T11:24:01.638Z,997.6
2018-05-08T11:25:02.366Z,997.7
2018-05-08T11:26:03.105Z,997.6
2018-05-08T11:27:03.850Z,997.6
2018-05-08T11:28:04.597Z,997.5
2018-05-08T11:29:05.339Z,997.6
2018-05-08T11:30:06.328Z,997.6
2018-05-08T11:31:07.066Z,997.5
2018-05-08T11:32:07.800Z,997.4
2018-05-08T11:33:08.694Z,997.5
2018-05-08T11:34:09.444Z,997.5
2018-05-08T11:35:10.176Z,997.6
2018-05-08T11:36:11.174Z,997.4
2018-05-08T11:37:11.957Z,997.4
2018-05-08T11:38:12.694Z,997.4
2018-05-08T11:39:13.454Z,997.4
2018-05-08T11:40:14.193Z,997.4
2018-05-08T11:41:14.937Z,997.3
2018-05-08T11:42:15.676Z,997.3
2018-05-08T11:43:16.458Z,997.3
2018-05-08T11:44:17.197Z,997.3
2018-05-08T11:45:17.933Z,997.3
2018-05-08T11:46:18.917Z,997.3
2018-05-08T11:47:19.666Z,997.3
2018-05-08T11:48:21.107Z,997.2
2018-05-08T11:49:21.850Z,997.2
2018-05-08T11:50:22.585Z,997.2
2018-05-08T11:51:23.337Z,997.1
2018-05-08T11:52:24.070Z,997.1
2018-05-08T11:53:24.873Z,997.2
2018-05-08T11:54:25.877Z,997.2
2018-05-08T11:55:26.614Z,997.2
2018-05-08T11:56:27.359Z,997.2
2018-05-08T11:57:28.092Z,997.1
2018-05-08T11:58:28.925Z,997.2
2018-05-08T11:59:29.758Z,997.0
2018-05-08T12:00:30.733Z,997.1
2018-05-08T12:01:31.472Z,997.1
2018-05-08T12:02:32.233Z,997.1
2018-05-08T12:03:32.953Z,997.1
2018-05-08T12:04:33.694Z,997.0
2018-05-08T12:05:34.429Z,997.1
2018-05-08T12:06:35.186Z,997.1
2018-05-08T12:07:35.919Z,997.0
2018-05-08T12:08:36.674Z,997.0
2018-05-08T12:09:37.411Z,997.0
2018-05-08T12:10:38.159Z,997.0
2018-05-08T12:11:38.887Z,996.9
2018-05-08T12:12:39.876Z,996.9
2018-05-08T12:13:40.632Z,997.0
2018-05-08T12:14:41.478Z,997.0
2018-05-08T12:15:42.374Z,996.8
2018-05-08T12:16:43.103Z,996.9
2018-05-08T12:17:43.842Z,996.9
2018-05-08T12:18:44.736Z,996.9
2018-05-08T12:19:45.472Z,996.9
2018-05-08T12:20:46.208Z,996.8
2018-05-08T12:21:46.991Z,996.9
2018-05-08T12:22:47.686Z,996.8
2018-05-08T12:23:48.476Z,996.9
2018-05-08T12:24:49.210Z,996.9
2018-05-08T12:25:49.946Z,996.9
2018-05-08T12:26:50.711Z,996.8
2018-05-08T12:27:51.433Z,996.8
2018-05-08T12:28:52.328Z,996.8
2018-05-08T12:29:53.066Z,996.7
2018-05-08T12:30:53.801Z,996.8
2018-05-08T12:31:54.545Z,996.7
2018-05-08T12:32:55.300Z,996.7
2018-05-08T12:33:56.082Z,996.7
2018-05-08T12:34:56.825Z,996.7
2018-05-08T12:35:57.584Z,996.9
2018-05-08T12:36:58.320Z,996.7
2018-05-08T12:37:59.063Z,996.8
2018-05-08T12:38:59.804Z,996.7
2018-05-08T12:40:00.552Z,996.7
2018-05-08T12:41:01.383Z,996.7
2018-05-08T12:42:02.153Z,996.7
2018-05-08T12:43:02.860Z,996.6
2018-05-08T12:44:03.858Z,996.7
2018-05-08T12:45:04.810Z,996.6
2018-05-08T12:46:05.604Z,996.6
2018-05-08T12:47:06.339Z,996.6
2018-05-08T12:48:07.081Z,996.6
2018-05-08T12:49:07.793Z,996.6
2018-05-08T12:50:08.581Z,996.6
2018-05-08T12:51:09.368Z,996.5
2018-05-08T12:52:10.109Z,996.6
2018-05-08T12:53:10.852Z,996.6
2018-05-08T12:54:11.589Z,996.6